Garden City, Virginia
Current Conditions -  °F | °C
As of 6:31 AM on Wednesday 26 Nov 2014 (Local Time) from KROA Reporting Station
Heavy Rain Heavy Rain  
Wind Chill: 27°   Ceiling: 2000
Heat Index: 35°   Visibility: 4mi
Dew Point: 33°   Wind: 10mph
Humidity: 92%   Direction: 360°N
Pressure: 30.05"   Gusts: NA
Location:  37.224°N, 79.9199°W
Report Text: KROA 261131Z 36009KT 4SM +RA BR SCT010 OVC020 02/01 A3005 RMK AO2 P0018 T00170006 $
Loading
Personal Weather Stations






























Interactive Weather Map New forecast layout! Learn more

10-Day Weather Forecast

Advertisements
Track Severe Weather on mobile